sensor_id;sensor_type;location;lat;lon;timestamp;P1;durP1;ratioP1;P2;durP2;ratioP2
30380;SDS011;17169;50.966;11.038;2024-03-08T00:01:46;28.77;;;16.48;;
30380;SDS011;17169;50.966;11.038;2024-03-08T00:04:48;28.67;;;17.17;;
30380;SDS011;17169;50.966;11.038;2024-03-08T00:07:52;30.05;;;16.77;;
30380;SDS011;17169;50.966;11.038;2024-03-08T00:10:54;29.05;;;17.67;;
30380;SDS011;17169;50.966;11.038;2024-03-08T00:13:56;28.00;;;16.00;;
30380;SDS011;17169;50.966;11.038;2024-03-08T00:16:59;26.52;;;15.90;;
30380;SDS011;17169;50.966;11.038;2024-03-08T00:20:01;33.65;;;15.93;;
30380;SDS011;17169;50.966;11.038;2024-03-08T00:23:10;29.63;;;16.92;;
30380;SDS011;17169;50.966;11.038;2024-03-08T00:26:12;29.65;;;17.13;;
30380;SDS011;17169;50.966;11.038;2024-03-08T00:29:14;26.02;;;16.88;;
30380;SDS011;17169;50.966;11.038;2024-03-08T00:32:16;29.25;;;16.65;;
30380;SDS011;17169;50.966;11.038;2024-03-08T00:35:19;29.30;;;17.50;;
30380;SDS011;17169;50.966;11.038;2024-03-08T00:38:22;29.92;;;17.52;;
30380;SDS011;17169;50.966;11.038;2024-03-08T00:41:24;33.08;;;17.17;;
30380;SDS011;17169;50.966;11.038;2024-03-08T00:44:27;29.98;;;16.67;;
30380;SDS011;17169;50.966;11.038;2024-03-08T00:47:29;30.67;;;16.63;;
30380;SDS011;17169;50.966;11.038;2024-03-08T00:50:31;28.23;;;15.82;;
30380;SDS011;17169;50.966;11.038;2024-03-08T00:53:35;29.00;;;15.13;;
30380;SDS011;17169;50.966;11.038;2024-03-08T00:56:38;29.25;;;16.88;;
30380;SDS011;17169;50.966;11.038;2024-03-08T00:59:40;30.00;;;16.95;;
30380;SDS011;17169;50.966;11.038;2024-03-08T01:02:43;27.27;;;15.45;;
30380;SDS011;17169;50.966;11.038;2024-03-08T01:05:45;28.50;;;16.92;;
30380;SDS011;17169;50.966;11.038;2024-03-08T01:08:49;26.58;;;15.70;;
30380;SDS011;17169;50.966;11.038;2024-03-08T01:11:52;29.10;;;16.53;;
30380;SDS011;17169;50.966;11.038;2024-03-08T01:14:55;27.67;;;16.83;;
30380;SDS011;17169;50.966;11.038;2024-03-08T01:17:58;31.38;;;17.63;;
30380;SDS011;17169;50.966;11.038;2024-03-08T01:21:01;31.70;;;16.40;;
30380;SDS011;17169;50.966;11.038;2024-03-08T01:24:05;34.65;;;17.02;;
30380;SDS011;17169;50.966;11.038;2024-03-08T01:27:07;30.90;;;18.35;;
30380;SDS011;17169;50.966;11.038;2024-03-08T01:30:10;29.00;;;17.05;;
30380;SDS011;17169;50.966;11.038;2024-03-08T01:33:13;27.90;;;16.10;;
30380;SDS011;17169;50.966;11.038;2024-03-08T01:36:15;27.67;;;17.35;;
30380;SDS011;17169;50.966;11.038;2024-03-08T01:39:21;30.58;;;17.33;;
30380;SDS011;17169;50.966;11.038;2024-03-08T01:42:23;28.30;;;16.50;;
30380;SDS011;17169;50.966;11.038;2024-03-08T01:45:25;26.40;;;16.27;;
30380;SDS011;17169;50.966;11.038;2024-03-08T01:48:27;30.13;;;16.20;;
30380;SDS011;17169;50.966;11.038;2024-03-08T01:51:30;30.70;;;18.15;;
30380;SDS011;17169;50.966;11.038;2024-03-08T01:54:34;28.90;;;16.23;;
30380;SDS011;17169;50.966;11.038;2024-03-08T01:57:37;27.65;;;16.65;;
30380;SDS011;17169;50.966;11.038;2024-03-08T02:00:39;30.52;;;17.55;;
30380;SDS011;17169;50.966;11.038;2024-03-08T02:03:44;30.90;;;17.65;;
30380;SDS011;17169;50.966;11.038;2024-03-08T02:06:47;32.55;;;18.65;;
30380;SDS011;17169;50.966;11.038;2024-03-08T02:09:50;31.35;;;17.85;;
30380;SDS011;17169;50.966;11.038;2024-03-08T02:12:53;35.70;;;18.33;;
30380;SDS011;17169;50.966;11.038;2024-03-08T02:15:56;30.90;;;17.27;;
30380;SDS011;17169;50.966;11.038;2024-03-08T02:18:59;30.05;;;18.40;;
30380;SDS011;17169;50.966;11.038;2024-03-08T02:22:03;30.73;;;17.80;;
30380;SDS011;17169;50.966;11.038;2024-03-08T02:25:07;36.30;;;18.75;;
30380;SDS011;17169;50.966;11.038;2024-03-08T02:28:10;32.05;;;18.10;;
30380;SDS011;17169;50.966;11.038;2024-03-08T02:31:13;31.80;;;17.80;;
30380;SDS011;17169;50.966;11.038;2024-03-08T02:34:17;29.23;;;18.20;;
30380;SDS011;17169;50.966;11.038;2024-03-08T02:37:20;31.52;;;17.92;;
30380;SDS011;17169;50.966;11.038;2024-03-08T02:40:22;33.65;;;18.15;;
30380;SDS011;17169;50.966;11.038;2024-03-08T02:43:25;33.17;;;17.00;;
30380;SDS011;17169;50.966;11.038;2024-03-08T02:46:27;32.40;;;18.42;;
30380;SDS011;17169;50.966;11.038;2024-03-08T02:49:30;35.13;;;19.40;;
30380;SDS011;17169;50.966;11.038;2024-03-08T02:52:34;31.92;;;18.58;;
30380;SDS011;17169;50.966;11.038;2024-03-08T02:55:37;33.40;;;19.27;;
30380;SDS011;17169;50.966;11.038;2024-03-08T02:58:41;34.00;;;18.83;;
30380;SDS011;17169;50.966;11.038;2024-03-08T03:01:43;32.67;;;17.85;;
30380;SDS011;17169;50.966;11.038;2024-03-08T03:04:46;31.08;;;17.95;;
30380;SDS011;17169;50.966;11.038;2024-03-08T03:07:50;31.50;;;19.15;;
30380;SDS011;17169;50.966;11.038;2024-03-08T03:10:53;32.93;;;19.10;;
30380;SDS011;17169;50.966;11.038;2024-03-08T03:13:57;28.00;;;17.33;;
30380;SDS011;17169;50.966;11.038;2024-03-08T03:16:59;39.47;;;19.98;;
30380;SDS011;17169;50.966;11.038;2024-03-08T03:20:04;34.88;;;19.23;;
30380;SDS011;17169;50.966;11.038;2024-03-08T03:23:11;33.30;;;19.08;;
30380;SDS011;17169;50.966;11.038;2024-03-08T03:26:15;33.63;;;18.50;;
30380;SDS011;17169;50.966;11.038;2024-03-08T03:29:17;31.30;;;18.55;;
30380;SDS011;17169;50.966;11.038;2024-03-08T03:32:20;33.05;;;20.27;;
30380;SDS011;17169;50.966;11.038;2024-03-08T03:35:24;33.58;;;19.60;;
30380;SDS011;17169;50.966;11.038;2024-03-08T03:38:27;36.17;;;21.45;;
30380;SDS011;17169;50.966;11.038;2024-03-08T03:41:30;35.50;;;20.00;;
30380;SDS011;17169;50.966;11.038;2024-03-08T03:44:32;32.45;;;19.25;;
30380;SDS011;17169;50.966;11.038;2024-03-08T03:47:35;35.75;;;19.55;;
30380;SDS011;17169;50.966;11.038;2024-03-08T03:50:38;34.83;;;20.70;;
30380;SDS011;17169;50.966;11.038;2024-03-08T03:53:42;33.10;;;20.48;;
30380;SDS011;17169;50.966;11.038;2024-03-08T03:56:44;33.28;;;20.13;;
30380;SDS011;17169;50.966;11.038;2024-03-08T03:59:47;38.00;;;21.23;;
30380;SDS011;17169;50.966;11.038;2024-03-08T04:02:49;35.53;;;20.75;;
30380;SDS011;17169;50.966;11.038;2024-03-08T04:05:52;34.67;;;20.80;;
30380;SDS011;17169;50.966;11.038;2024-03-08T04:08:55;32.10;;;19.25;;
30380;SDS011;17169;50.966;11.038;2024-03-08T04:11:58;36.78;;;21.27;;
30380;SDS011;17169;50.966;11.038;2024-03-08T04:15:01;38.53;;;21.25;;
30380;SDS011;17169;50.966;11.038;2024-03-08T04:18:04;38.17;;;21.15;;
30380;SDS011;17169;50.966;11.038;2024-03-08T04:21:06;36.47;;;20.83;;
30380;SDS011;17169;50.966;11.038;2024-03-08T04:24:10;38.42;;;21.40;;
30380;SDS011;17169;50.966;11.038;2024-03-08T04:27:12;36.78;;;21.23;;
30380;SDS011;17169;50.966;11.038;2024-03-08T04:30:16;33.90;;;20.45;;
30380;SDS011;17169;50.966;11.038;2024-03-08T04:33:18;39.15;;;20.77;;
30380;SDS011;17169;50.966;11.038;2024-03-08T04:36:22;33.92;;;20.10;;
30380;SDS011;17169;50.966;11.038;2024-03-08T04:39:26;40.83;;;23.08;;
30380;SDS011;17169;50.966;11.038;2024-03-08T04:42:29;39.23;;;20.47;;
30380;SDS011;17169;50.966;11.038;2024-03-08T04:45:33;39.90;;;22.42;;
30380;SDS011;17169;50.966;11.038;2024-03-08T04:48:35;34.42;;;20.33;;
30380;SDS011;17169;50.966;11.038;2024-03-08T04:51:38;37.38;;;21.45;;
30380;SDS011;17169;50.966;11.038;2024-03-08T04:54:42;40.97;;;21.77;;
30380;SDS011;17169;50.966;11.038;2024-03-08T04:57:45;37.47;;;21.50;;
30380;SDS011;17169;50.966;11.038;2024-03-08T05:00:47;36.42;;;21.40;;
30380;SDS011;17169;50.966;11.038;2024-03-08T05:03:51;36.78;;;21.00;;
30380;SDS011;17169;50.966;11.038;2024-03-08T05:06:55;40.90;;;21.42;;
30380;SDS011;17169;50.966;11.038;2024-03-08T05:09:59;35.75;;;21.48;;
30380;SDS011;17169;50.966;11.038;2024-03-08T05:13:02;38.42;;;20.67;;
30380;SDS011;17169;50.966;11.038;2024-03-08T05:16:05;36.60;;;21.27;;
30380;SDS011;17169;50.966;11.038;2024-03-08T05:19:09;37.53;;;20.90;;
30380;SDS011;17169;50.966;11.038;2024-03-08T05:22:11;48.25;;;21.60;;
30380;SDS011;17169;50.966;11.038;2024-03-08T05:25:15;37.65;;;23.33;;
30380;SDS011;17169;50.966;11.038;2024-03-08T05:28:18;44.50;;;22.73;;
30380;SDS011;17169;50.966;11.038;2024-03-08T05:31:20;36.30;;;21.95;;
30380;SDS011;17169;50.966;11.038;2024-03-08T05:34:23;38.78;;;21.38;;
30380;SDS011;17169;50.966;11.038;2024-03-08T05:37:26;37.63;;;21.33;;
30380;SDS011;17169;50.966;11.038;2024-03-08T05:40:30;36.28;;;22.02;;
30380;SDS011;17169;50.966;11.038;2024-03-08T05:43:33;39.35;;;22.15;;
30380;SDS011;17169;50.966;11.038;2024-03-08T05:46:35;35.45;;;20.90;;
30380;SDS011;17169;50.966;11.038;2024-03-08T05:49:37;39.17;;;22.83;;
30380;SDS011;17169;50.966;11.038;2024-03-08T05:52:40;38.90;;;22.58;;
30380;SDS011;17169;50.966;11.038;2024-03-08T05:55:45;39.47;;;22.08;;
30380;SDS011;17169;50.966;11.038;2024-03-08T05:58:47;40.33;;;21.85;;
30380;SDS011;17169;50.966;11.038;2024-03-08T06:01:50;38.80;;;22.60;;
30380;SDS011;17169;50.966;11.038;2024-03-08T06:04:52;45.45;;;23.90;;
30380;SDS011;17169;50.966;11.038;2024-03-08T06:07:55;37.55;;;21.23;;
30380;SDS011;17169;50.966;11.038;2024-03-08T06:10:58;44.35;;;22.15;;
30380;SDS011;17169;50.966;11.038;2024-03-08T06:14:03;44.95;;;23.30;;
30380;SDS011;17169;50.966;11.038;2024-03-08T06:17:06;43.20;;;22.83;;
30380;SDS011;17169;50.966;11.038;2024-03-08T06:20:09;40.70;;;22.20;;
30380;SDS011;17169;50.966;11.038;2024-03-08T06:23:13;40.53;;;22.25;;
30380;SDS011;17169;50.966;11.038;2024-03-08T06:26:19;40.72;;;23.27;;
30380;SDS011;17169;50.966;11.038;2024-03-08T06:29:22;44.72;;;24.30;;
30380;SDS011;17169;50.966;11.038;2024-03-08T06:32:24;40.47;;;23.25;;
30380;SDS011;17169;50.966;11.038;2024-03-08T06:35:26;42.83;;;24.17;;
30380;SDS011;17169;50.966;11.038;2024-03-08T06:38:29;38.58;;;23.60;;
30380;SDS011;17169;50.966;11.038;2024-03-08T06:41:33;43.10;;;23.85;;
30380;SDS011;17169;50.966;11.038;2024-03-08T06:44:35;42.50;;;23.92;;
30380;SDS011;17169;50.966;11.038;2024-03-08T06:47:38;47.88;;;24.98;;
30380;SDS011;17169;50.966;11.038;2024-03-08T06:50:42;42.45;;;25.55;;
30380;SDS011;17169;50.966;11.038;2024-03-08T06:53:46;47.03;;;26.38;;
30380;SDS011;17169;50.966;11.038;2024-03-08T06:56:51;48.05;;;26.08;;
30380;SDS011;17169;50.966;11.038;2024-03-08T06:59:53;42.55;;;24.23;;
30380;SDS011;17169;50.966;11.038;2024-03-08T07:02:57;46.10;;;26.33;;
30380;SDS011;17169;50.966;11.038;2024-03-08T07:06:01;46.45;;;24.98;;
30380;SDS011;17169;50.966;11.038;2024-03-08T07:09:05;44.58;;;24.08;;
30380;SDS011;17169;50.966;11.038;2024-03-08T07:12:08;47.10;;;25.23;;
30380;SDS011;17169;50.966;11.038;2024-03-08T07:15:11;52.35;;;27.00;;
30380;SDS011;17169;50.966;11.038;2024-03-08T07:18:15;45.08;;;27.20;;
30380;SDS011;17169;50.966;11.038;2024-03-08T07:21:17;46.00;;;26.20;;
30380;SDS011;17169;50.966;11.038;2024-03-08T07:24:20;52.65;;;26.10;;
30380;SDS011;17169;50.966;11.038;2024-03-08T07:27:42;47.83;;;25.52;;
30380;SDS011;17169;50.966;11.038;2024-03-08T07:30:44;45.55;;;24.85;;
30380;SDS011;17169;50.966;11.038;2024-03-08T07:34:08;47.08;;;26.55;;
30380;SDS011;17169;50.966;11.038;2024-03-08T07:37:11;45.00;;;25.75;;
30380;SDS011;17169;50.966;11.038;2024-03-08T07:40:14;44.65;;;25.85;;
30380;SDS011;17169;50.966;11.038;2024-03-08T07:43:18;42.35;;;25.42;;
30380;SDS011;17169;50.966;11.038;2024-03-08T07:46:20;44.83;;;25.75;;
30380;SDS011;17169;50.966;11.038;2024-03-08T07:49:23;47.67;;;24.20;;
30380;SDS011;17169;50.966;11.038;2024-03-08T07:52:26;47.35;;;25.13;;
30380;SDS011;17169;50.966;11.038;2024-03-08T07:55:28;51.50;;;26.92;;
30380;SDS011;17169;50.966;11.038;2024-03-08T07:58:33;50.10;;;26.38;;
30380;SDS011;17169;50.966;11.038;2024-03-08T08:01:35;50.05;;;26.90;;
30380;SDS011;17169;50.966;11.038;2024-03-08T08:04:37;46.95;;;26.25;;
30380;SDS011;17169;50.966;11.038;2024-03-08T08:07:40;45.58;;;26.52;;
30380;SDS011;17169;50.966;11.038;2024-03-08T08:10:46;49.83;;;25.98;;
30380;SDS011;17169;50.966;11.038;2024-03-08T08:13:51;41.92;;;24.98;;
30380;SDS011;17169;50.966;11.038;2024-03-08T08:16:55;47.65;;;25.70;;
30380;SDS011;17169;50.966;11.038;2024-03-08T08:19:57;44.88;;;24.98;;
30380;SDS011;17169;50.966;11.038;2024-03-08T08:23:00;54.33;;;26.27;;
30380;SDS011;17169;50.966;11.038;2024-03-08T08:26:02;48.72;;;26.65;;
30380;SDS011;17169;50.966;11.038;2024-03-08T08:29:06;44.53;;;26.38;;
30380;SDS011;17169;50.966;11.038;2024-03-08T08:32:09;47.47;;;27.25;;
30380;SDS011;17169;50.966;11.038;2024-03-08T08:35:11;50.67;;;28.02;;
30380;SDS011;17169;50.966;11.038;2024-03-08T08:38:13;50.15;;;26.70;;
30380;SDS011;17169;50.966;11.038;2024-03-08T08:41:15;47.47;;;25.33;;
30380;SDS011;17169;50.966;11.038;2024-03-08T08:44:20;46.60;;;25.65;;
30380;SDS011;17169;50.966;11.038;2024-03-08T08:47:22;43.85;;;25.08;;
30380;SDS011;17169;50.966;11.038;2024-03-08T08:50:24;42.90;;;24.92;;
30380;SDS011;17169;50.966;11.038;2024-03-08T08:53:28;42.90;;;24.47;;
30380;SDS011;17169;50.966;11.038;2024-03-08T08:56:31;44.30;;;25.00;;
30380;SDS011;17169;50.966;11.038;2024-03-08T08:59:34;46.38;;;24.95;;
30380;SDS011;17169;50.966;11.038;2024-03-08T09:02:37;44.38;;;24.45;;
30380;SDS011;17169;50.966;11.038;2024-03-08T09:05:39;42.47;;;25.38;;
30380;SDS011;17169;50.966;11.038;2024-03-08T09:08:43;46.00;;;25.23;;
30380;SDS011;17169;50.966;11.038;2024-03-08T09:11:46;39.88;;;24.70;;
30380;SDS011;17169;50.966;11.038;2024-03-08T09:14:51;42.63;;;24.77;;
30380;SDS011;17169;50.966;11.038;2024-03-08T09:17:53;42.55;;;24.67;;
30380;SDS011;17169;50.966;11.038;2024-03-08T09:20:56;42.60;;;23.98;;
30380;SDS011;17169;50.966;11.038;2024-03-08T09:23:58;49.15;;;24.55;;
30380;SDS011;17169;50.966;11.038;2024-03-08T09:27:00;42.25;;;25.65;;
30380;SDS011;17169;50.966;11.038;2024-03-08T09:30:05;38.38;;;21.08;;
30380;SDS011;17169;50.966;11.038;2024-03-08T09:33:08;43.53;;;23.23;;
30380;SDS011;17169;50.966;11.038;2024-03-08T09:36:10;43.85;;;22.40;;
30380;SDS011;17169;50.966;11.038;2024-03-08T09:39:13;37.13;;;21.45;;
30380;SDS011;17169;50.966;11.038;2024-03-08T09:42:17;34.38;;;22.45;;
30380;SDS011;17169;50.966;11.038;2024-03-08T09:45:21;36.15;;;21.17;;
30380;SDS011;17169;50.966;11.038;2024-03-08T09:48:24;41.20;;;22.87;;
30380;SDS011;17169;50.966;11.038;2024-03-08T09:51:28;39.63;;;21.08;;
30380;SDS011;17169;50.966;11.038;2024-03-08T09:54:31;34.78;;;22.00;;
30380;SDS011;17169;50.966;11.038;2024-03-08T09:57:34;35.17;;;21.88;;
30380;SDS011;17169;50.966;11.038;2024-03-08T10:00:39;35.13;;;21.83;;
30380;SDS011;17169;50.966;11.038;2024-03-08T10:03:42;35.92;;;21.73;;
30380;SDS011;17169;50.966;11.038;2024-03-08T10:06:44;36.30;;;20.80;;
30380;SDS011;17169;50.966;11.038;2024-03-08T10:09:48;37.75;;;20.95;;
30380;SDS011;17169;50.966;11.038;2024-03-08T10:12:54;36.38;;;20.02;;
30380;SDS011;17169;50.966;11.038;2024-03-08T10:15:58;33.92;;;20.90;;
30380;SDS011;17169;50.966;11.038;2024-03-08T10:19:02;32.63;;;19.90;;
30380;SDS011;17169;50.966;11.038;2024-03-08T10:22:06;33.85;;;20.58;;
30380;SDS011;17169;50.966;11.038;2024-03-08T10:25:15;33.88;;;20.27;;
30380;SDS011;17169;50.966;11.038;2024-03-08T10:28:18;37.53;;;21.92;;
30380;SDS011;17169;50.966;11.038;2024-03-08T10:31:21;33.90;;;19.50;;
30380;SDS011;17169;50.966;11.038;2024-03-08T10:34:24;33.78;;;17.25;;
30380;SDS011;17169;50.966;11.038;2024-03-08T10:37:26;28.80;;;16.83;;
30380;SDS011;17169;50.966;11.038;2024-03-08T10:40:29;30.73;;;16.58;;
30380;SDS011;17169;50.966;11.038;2024-03-08T10:43:36;27.92;;;16.65;;
30380;SDS011;17169;50.966;11.038;2024-03-08T10:47:00;27.42;;;16.00;;
30380;SDS011;17169;50.966;11.038;2024-03-08T10:50:08;32.38;;;17.98;;
30380;SDS011;17169;50.966;11.038;2024-03-08T10:53:13;27.45;;;16.50;;
30380;SDS011;17169;50.966;11.038;2024-03-08T10:56:16;33.38;;;17.00;;
30380;SDS011;17169;50.966;11.038;2024-03-08T10:59:18;28.67;;;16.80;;
30380;SDS011;17169;50.966;11.038;2024-03-08T11:02:22;28.27;;;15.93;;
30380;SDS011;17169;50.966;11.038;2024-03-08T11:05:31;30.42;;;16.55;;
30380;SDS011;17169;50.966;11.038;2024-03-08T11:08:38;26.08;;;14.93;;
30380;SDS011;17169;50.966;11.038;2024-03-08T11:11:41;30.17;;;15.40;;
30380;SDS011;17169;50.966;11.038;2024-03-08T11:14:43;31.13;;;17.27;;
30380;SDS011;17169;50.966;11.038;2024-03-08T11:17:50;29.90;;;16.38;;
30380;SDS011;17169;50.966;11.038;2024-03-08T11:20:56;27.05;;;16.45;;
30380;SDS011;17169;50.966;11.038;2024-03-08T11:23:59;28.30;;;16.60;;
30380;SDS011;17169;50.966;11.038;2024-03-08T11:27:03;27.25;;;16.23;;
30380;SDS011;17169;50.966;11.038;2024-03-08T11:30:06;29.08;;;18.25;;
30380;SDS011;17169;50.966;11.038;2024-03-08T11:33:13;31.65;;;18.55;;
30380;SDS011;17169;50.966;11.038;2024-03-08T11:36:19;33.97;;;18.55;;
30380;SDS011;17169;50.966;11.038;2024-03-08T11:39:22;29.50;;;16.85;;
30380;SDS011;17169;50.966;11.038;2024-03-08T11:42:25;31.63;;;18.50;;
30380;SDS011;17169;50.966;11.038;2024-03-08T11:45:27;29.40;;;17.50;;
30380;SDS011;17169;50.966;11.038;2024-03-08T11:48:31;29.83;;;17.33;;
30380;SDS011;17169;50.966;11.038;2024-03-08T11:51:34;33.58;;;16.92;;
30380;SDS011;17169;50.966;11.038;2024-03-08T11:54:36;31.42;;;17.98;;
30380;SDS011;17169;50.966;11.038;2024-03-08T11:57:39;32.50;;;17.42;;
30380;SDS011;17169;50.966;11.038;2024-03-08T12:00:42;30.65;;;16.15;;
30380;SDS011;17169;50.966;11.038;2024-03-08T12:03:53;32.60;;;17.13;;
30380;SDS011;17169;50.966;11.038;2024-03-08T12:06:59;28.77;;;16.45;;
30380;SDS011;17169;50.966;11.038;2024-03-08T12:10:15;29.40;;;15.88;;
30380;SDS011;17169;50.966;11.038;2024-03-08T12:13:19;26.35;;;15.15;;
30380;SDS011;17169;50.966;11.038;2024-03-08T12:16:21;29.92;;;17.27;;
30380;SDS011;17169;50.966;11.038;2024-03-08T12:19:27;29.63;;;16.45;;
30380;SDS011;17169;50.966;11.038;2024-03-08T12:22:30;27.88;;;16.63;;
30380;SDS011;17169;50.966;11.038;2024-03-08T12:25:32;29.10;;;18.13;;
30380;SDS011;17169;50.966;11.038;2024-03-08T12:28:35;29.67;;;16.67;;
30380;SDS011;17169;50.966;11.038;2024-03-08T12:31:37;28.48;;;16.40;;
30380;SDS011;17169;50.966;11.038;2024-03-08T12:37:53;30.25;;;15.93;;
30380;SDS011;17169;50.966;11.038;2024-03-08T12:40:57;29.55;;;16.77;;
30380;SDS011;17169;50.966;11.038;2024-03-08T12:44:00;28.65;;;16.98;;
30380;SDS011;17169;50.966;11.038;2024-03-08T12:47:03;26.20;;;15.70;;
30380;SDS011;17169;50.966;11.038;2024-03-08T12:50:07;27.52;;;16.33;;
30380;SDS011;17169;50.966;11.038;2024-03-08T12:53:09;28.73;;;16.57;;
30380;SDS011;17169;50.966;11.038;2024-03-08T12:56:12;33.90;;;16.20;;
30380;SDS011;17169;50.966;11.038;2024-03-08T12:59:15;27.52;;;16.23;;
30380;SDS011;17169;50.966;11.038;2024-03-08T13:02:17;27.98;;;16.77;;
30380;SDS011;17169;50.966;11.038;2024-03-08T13:05:20;26.30;;;15.45;;
30380;SDS011;17169;50.966;11.038;2024-03-08T13:08:23;28.20;;;16.50;;
30380;SDS011;17169;50.966;11.038;2024-03-08T13:11:28;27.83;;;16.10;;
30380;SDS011;17169;50.966;11.038;2024-03-08T13:14:30;32.67;;;16.73;;
30380;SDS011;17169;50.966;11.038;2024-03-08T13:20:41;26.67;;;15.52;;
30380;SDS011;17169;50.966;11.038;2024-03-08T13:23:49;27.35;;;16.23;;
30380;SDS011;17169;50.966;11.038;2024-03-08T13:26:53;27.02;;;15.82;;
30380;SDS011;17169;50.966;11.038;2024-03-08T13:29:55;29.95;;;15.90;;
30380;SDS011;17169;50.966;11.038;2024-03-08T13:32:58;26.60;;;15.45;;
30380;SDS011;17169;50.966;11.038;2024-03-08T13:36:01;28.55;;;17.20;;
30380;SDS011;17169;50.966;11.038;2024-03-08T13:39:06;28.52;;;15.85;;
30380;SDS011;17169;50.966;11.038;2024-03-08T13:42:15;24.65;;;15.23;;
30380;SDS011;17169;50.966;11.038;2024-03-08T13:45:18;29.05;;;16.80;;
30380;SDS011;17169;50.966;11.038;2024-03-08T13:48:22;25.02;;;16.33;;
30380;SDS011;17169;50.966;11.038;2024-03-08T13:51:25;26.23;;;16.55;;
30380;SDS011;17169;50.966;11.038;2024-03-08T13:54:28;31.00;;;17.27;;
30380;SDS011;17169;50.966;11.038;2024-03-08T13:57:31;25.27;;;15.60;;
30380;SDS011;17169;50.966;11.038;2024-03-08T14:00:34;27.65;;;16.83;;
30380;SDS011;17169;50.966;11.038;2024-03-08T14:03:36;29.33;;;16.27;;
30380;SDS011;17169;50.966;11.038;2024-03-08T14:06:40;26.75;;;16.02;;
30380;SDS011;17169;50.966;11.038;2024-03-08T14:09:43;25.90;;;15.40;;
30380;SDS011;17169;50.966;11.038;2024-03-08T14:12:47;26.42;;;15.20;;
30380;SDS011;17169;50.966;11.038;2024-03-08T14:15:49;25.15;;;15.27;;
30380;SDS011;17169;50.966;11.038;2024-03-08T14:18:52;27.48;;;14.98;;
30380;SDS011;17169;50.966;11.038;2024-03-08T14:21:56;25.98;;;14.52;;
30380;SDS011;17169;50.966;11.038;2024-03-08T14:24:59;25.08;;;15.75;;
30380;SDS011;17169;50.966;11.038;2024-03-08T14:28:03;21.23;;;13.35;;
30380;SDS011;17169;50.966;11.038;2024-03-08T14:31:07;27.80;;;15.60;;
30380;SDS011;17169;50.966;11.038;2024-03-08T14:34:12;26.37;;;14.33;;
30380;SDS011;17169;50.966;11.038;2024-03-08T14:37:16;28.42;;;13.07;;
30380;SDS011;17169;50.966;11.038;2024-03-08T14:40:23;26.48;;;14.82;;
30380;SDS011;17169;50.966;11.038;2024-03-08T14:43:26;26.73;;;15.05;;
30380;SDS011;17169;50.966;11.038;2024-03-08T14:46:28;26.65;;;15.48;;
30380;SDS011;17169;50.966;11.038;2024-03-08T14:49:31;26.63;;;15.25;;
30380;SDS011;17169;50.966;11.038;2024-03-08T14:52:36;26.58;;;15.18;;
30380;SDS011;17169;50.966;11.038;2024-03-08T14:55:40;21.47;;;14.43;;
30380;SDS011;17169;50.966;11.038;2024-03-08T14:58:42;27.40;;;15.90;;
30380;SDS011;17169;50.966;11.038;2024-03-08T15:01:45;23.90;;;14.77;;
30380;SDS011;17169;50.966;11.038;2024-03-08T15:04:47;21.55;;;15.02;;
30380;SDS011;17169;50.966;11.038;2024-03-08T15:07:58;25.73;;;15.30;;
30380;SDS011;17169;50.966;11.038;2024-03-08T15:11:03;26.05;;;15.50;;
30380;SDS011;17169;50.966;11.038;2024-03-08T15:14:06;24.08;;;15.07;;
30380;SDS011;17169;50.966;11.038;2024-03-08T15:17:11;26.80;;;15.40;;
30380;SDS011;17169;50.966;11.038;2024-03-08T15:20:21;24.80;;;15.77;;
30380;SDS011;17169;50.966;11.038;2024-03-08T15:23:27;26.50;;;15.60;;
30380;SDS011;17169;50.966;11.038;2024-03-08T15:26:29;26.60;;;15.63;;
30380;SDS011;17169;50.966;11.038;2024-03-08T15:29:32;23.40;;;14.38;;
30380;SDS011;17169;50.966;11.038;2024-03-08T15:32:35;28.95;;;15.48;;
30380;SDS011;17169;50.966;11.038;2024-03-08T15:35:38;25.02;;;14.90;;
30380;SDS011;17169;50.966;11.038;2024-03-08T15:38:41;29.75;;;14.85;;
30380;SDS011;17169;50.966;11.038;2024-03-08T15:41:47;25.55;;;14.27;;
30380;SDS011;17169;50.966;11.038;2024-03-08T15:44:49;22.48;;;13.63;;
30380;SDS011;17169;50.966;11.038;2024-03-08T15:47:51;22.17;;;14.50;;
30380;SDS011;17169;50.966;11.038;2024-03-08T15:50:54;27.70;;;14.55;;
30380;SDS011;17169;50.966;11.038;2024-03-08T15:53:57;23.38;;;14.75;;
30380;SDS011;17169;50.966;11.038;2024-03-08T15:57:00;22.30;;;14.18;;
30380;SDS011;17169;50.966;11.038;2024-03-08T16:00:08;22.08;;;13.90;;
30380;SDS011;17169;50.966;11.038;2024-03-08T16:03:19;22.85;;;13.55;;
30380;SDS011;17169;50.966;11.038;2024-03-08T16:06:21;20.17;;;12.90;;
30380;SDS011;17169;50.966;11.038;2024-03-08T16:09:26;27.15;;;14.50;;
30380;SDS011;17169;50.966;11.038;2024-03-08T16:12:30;24.67;;;14.05;;
30380;SDS011;17169;50.966;11.038;2024-03-08T16:15:32;23.60;;;14.48;;
30380;SDS011;17169;50.966;11.038;2024-03-08T16:18:35;21.90;;;13.93;;
30380;SDS011;17169;50.966;11.038;2024-03-08T16:21:38;25.45;;;16.08;;
30380;SDS011;17169;50.966;11.038;2024-03-08T16:24:44;33.17;;;18.05;;
30380;SDS011;17169;50.966;11.038;2024-03-08T16:27:51;33.72;;;19.23;;
30380;SDS011;17169;50.966;11.038;2024-03-08T16:30:53;32.38;;;18.95;;
30380;SDS011;17169;50.966;11.038;2024-03-08T16:33:56;33.15;;;18.35;;
30380;SDS011;17169;50.966;11.038;2024-03-08T16:36:59;36.22;;;19.38;;
30380;SDS011;17169;50.966;11.038;2024-03-08T16:40:04;38.95;;;19.42;;
30380;SDS011;17169;50.966;11.038;2024-03-08T16:43:07;35.53;;;19.95;;
30380;SDS011;17169;50.966;11.038;2024-03-08T16:46:11;34.42;;;19.75;;
30380;SDS011;17169;50.966;11.038;2024-03-08T16:49:14;34.78;;;20.13;;
30380;SDS011;17169;50.966;11.038;2024-03-08T16:52:16;33.03;;;20.23;;
30380;SDS011;17169;50.966;11.038;2024-03-08T16:55:21;34.55;;;19.77;;
30380;SDS011;17169;50.966;11.038;2024-03-08T16:58:24;39.60;;;20.90;;
30380;SDS011;17169;50.966;11.038;2024-03-08T17:01:26;35.75;;;19.85;;
30380;SDS011;17169;50.966;11.038;2024-03-08T17:04:29;36.33;;;20.08;;
30380;SDS011;17169;50.966;11.038;2024-03-08T17:07:31;36.85;;;19.33;;
30380;SDS011;17169;50.966;11.038;2024-03-08T17:10:36;34.45;;;19.48;;
30380;SDS011;17169;50.966;11.038;2024-03-08T17:13:40;36.92;;;20.23;;
30380;SDS011;17169;50.966;11.038;2024-03-08T17:16:43;32.08;;;18.52;;
30380;SDS011;17169;50.966;11.038;2024-03-08T17:19:45;36.63;;;19.55;;
30380;SDS011;17169;50.966;11.038;2024-03-08T17:22:48;39.17;;;20.85;;
30380;SDS011;17169;50.966;11.038;2024-03-08T17:25:54;34.13;;;20.30;;
30380;SDS011;17169;50.966;11.038;2024-03-08T17:28:58;28.85;;;18.48;;
30380;SDS011;17169;50.966;11.038;2024-03-08T17:32:00;36.67;;;20.48;;
30380;SDS011;17169;50.966;11.038;2024-03-08T17:35:04;28.53;;;17.33;;
30380;SDS011;17169;50.966;11.038;2024-03-08T17:38:12;33.00;;;16.95;;
30380;SDS011;17169;50.966;11.038;2024-03-08T17:41:15;28.42;;;16.17;;
30380;SDS011;17169;50.966;11.038;2024-03-08T17:44:23;25.10;;;16.00;;